createdAt,value
2019-03-20T05:03:56.623Z,2.065735
2019-03-20T05:07:24.456Z,2.176514
2019-03-20T05:10:52.287Z,2.247009
2019-03-20T05:14:20.123Z,2.317505
2019-03-20T05:17:47.970Z,2.428284
2019-03-20T05:21:16.089Z,2.468567
2019-03-20T05:24:44.780Z,2.528992
2019-03-20T05:28:13.623Z,2.549133
2019-03-20T05:31:41.600Z,2.579346
2019-03-20T05:35:09.536Z,2.6297
2019-03-20T05:38:37.387Z,2.720337
2019-03-20T05:42:05.243Z,2.76062
2019-03-20T05:45:33.203Z,2.841187
2019-03-20T05:49:02.030Z,2.891541
2019-03-20T05:52:29.867Z,2.931824
2019-03-20T05:55:58.710Z,3.002319
2019-03-20T05:59:26.537Z,3.082886
2019-03-20T06:02:55.366Z,3.173523
2019-03-20T06:06:23.367Z,3.223877
2019-03-20T06:09:51.205Z,3.233948
2019-03-20T06:13:19.064Z,3.304443
2019-03-20T06:16:46.896Z,3.405151
2019-03-20T06:20:14.784Z,3.445435
2019-03-20T06:23:42.633Z,3.505859
2019-03-20T06:27:10.561Z,3.505859
2019-03-20T06:30:39.631Z,3.536072
2019-03-20T06:34:07.407Z,3.586426
2019-03-20T06:37:35.297Z,3.63678
2019-03-20T06:41:03.165Z,3.727417
2019-03-20T06:44:31.011Z,3.898621
2019-03-20T06:48:00.011Z,4.049683
2019-03-20T06:51:27.884Z,4.120178
2019-03-20T06:54:55.787Z,4.180603
2019-03-20T06:58:24.735Z,4.230957
2019-03-20T07:01:52.586Z,4.281311
2019-03-20T07:05:21.410Z,4.311523
2019-03-20T07:08:49.374Z,4.39209
2019-03-20T07:12:17.210Z,4.462585
2019-03-20T07:15:45.089Z,4.593506
2019-03-20T07:19:12.926Z,4.664001
2019-03-20T07:22:40.760Z,4.754639
2019-03-20T07:26:08.586Z,4.925842
2019-03-20T07:29:36.661Z,5.056763
2019-03-20T07:33:04.468Z,5.177612
2019-03-20T07:36:32.281Z,5.217896
2019-03-20T07:40:00.130Z,5.409241
2019-03-20T07:43:27.950Z,5.590515
2019-03-20T07:46:55.893Z,5.731506
2019-03-20T07:50:23.712Z,5.802002
2019-03-20T07:53:51.816Z,5.932922
2019-03-20T07:57:19.651Z,6.003418
2019-03-20T08:00:47.474Z,6.235046
2019-03-20T08:04:16.309Z,6.416321
2019-03-20T08:07:44.173Z,6.607666
2019-03-20T08:11:12.019Z,6.738586
2019-03-20T08:14:39.994Z,6.748657
2019-03-20T08:18:07.830Z,6.829224
2019-03-20T08:21:35.663Z,6.960144
2019-03-20T08:25:03.516Z,7.101135
2019-03-20T08:28:32.337Z,7.252197
2019-03-20T08:32:00.260Z,7.28241
2019-03-20T08:35:29.218Z,7.362976
2019-03-20T08:38:58.631Z,7.54425
2019-03-20T08:42:26.453Z,7.675171
2019-03-20T08:45:54.306Z,7.876587
2019-03-20T08:49:23.202Z,7.906799
2019-03-20T08:52:51.024Z,7.937012
2019-03-20T08:56:19.010Z,8.007507
2019-03-20T08:59:46.848Z,8.017578
2019-03-20T09:03:14.670Z,8.088074
2019-03-20T09:06:42.518Z,8.088074
2019-03-20T09:10:10.363Z,8.239136
2019-03-20T09:13:38.197Z,8.390198
2019-03-20T09:17:06.341Z,8.42041
2019-03-20T09:20:36.072Z,8.531189
2019-03-20T09:24:04.947Z,8.621826
2019-03-20T09:27:32.797Z,8.782959
2019-03-20T09:31:01.024Z,8.964233
2019-03-20T09:34:28.804Z,9.0448
2019-03-20T09:37:57.631Z,9.226074
2019-03-20T09:41:25.471Z,9.135437
2019-03-20T09:44:53.316Z,9.226074
2019-03-20T09:48:21.140Z,9.286499
2019-03-20T09:51:49.983Z,9.17572
2019-03-20T09:55:17.811Z,9.356995
2019-03-20T09:58:45.851Z,9.407349
2019-03-20T10:02:13.627Z,9.779968
2019-03-20T10:05:41.481Z,9.80011
2019-03-20T10:09:10.297Z,9.769897
2019-03-20T10:12:38.146Z,9.850464
2019-03-20T10:16:05.977Z,10.102234
2019-03-20T10:19:33.804Z,9.93103
2019-03-20T10:23:01.896Z,9.840393
2019-03-20T10:26:29.737Z,9.689331
2019-03-20T10:29:58.097Z,9.618835
2019-03-20T10:33:25.995Z,9.588623
2019-03-20T10:36:53.843Z,9.649048
2019-03-20T10:40:21.678Z,9.769897
2019-03-20T10:43:52.109Z,9.981384
2019-03-20T10:47:18.504Z,10.031738
2019-03-20T10:50:47.338Z,10.172729
2019-03-20T10:54:16.558Z,10.202942
2019-03-20T10:57:44.010Z,10.122375
2019-03-20T11:01:11.865Z,10.202942
2019-03-20T11:04:39.916Z,10.243225
2019-03-20T11:08:07.771Z,10.354004
2019-03-20T11:11:36.601Z,10.30365
2019-03-20T11:15:05.512Z,10.142517
2019-03-20T11:18:33.376Z,9.981384
2019-03-20T11:22:01.223Z,9.870605
2019-03-20T11:25:33.106Z,9.699402
2019-03-20T11:29:01.959Z,9.689331
2019-03-20T11:32:29.851Z,9.598694
2019-03-20T11:35:57.738Z,9.598694
2019-03-20T11:39:29.728Z,9.598694
2019-03-20T11:42:55.415Z,9.618835
2019-03-20T11:46:23.619Z,9.628906
2019-03-20T11:49:51.462Z,9.689331
2019-03-20T11:53:19.298Z,9.80011
2019-03-20T11:56:47.132Z,9.93103
2019-03-20T12:00:14.977Z,9.910889
2019-03-20T12:03:43.810Z,9.880676
2019-03-20T12:07:12.802Z,9.850464
2019-03-20T12:10:40.631Z,9.870605
2019-03-20T12:14:08.464Z,9.900818
2019-03-20T12:17:36.307Z,9.870605
2019-03-20T12:21:04.154Z,9.910889
2019-03-20T12:24:31.996Z,9.910889
2019-03-20T12:28:00.027Z,9.910889
2019-03-20T12:31:28.953Z,9.961243
2019-03-20T12:34:56.852Z,10.011597
2019-03-20T12:38:24.746Z,9.981384
2019-03-20T12:41:52.600Z,9.961243
2019-03-20T12:45:20.426Z,9.870605
2019-03-20T12:48:48.403Z,9.80011
2019-03-20T12:52:16.293Z,9.840393
2019-03-20T12:55:44.072Z,9.880676
2019-03-20T12:59:12.903Z,9.941101
2019-03-20T13:02:40.750Z,9.910889
2019-03-20T13:06:09.573Z,9.880676
2019-03-20T13:09:37.550Z,9.840393
2019-03-20T13:13:05.416Z,9.80011
2019-03-20T13:16:34.227Z,9.80011
2019-03-20T13:20:03.072Z,9.80011
2019-03-20T13:23:30.914Z,9.719543
2019-03-20T13:26:58.762Z,9.628906
2019-03-20T13:30:26.930Z,9.598694
2019-03-20T13:33:54.839Z,9.54834
2019-03-20T13:37:22.679Z,9.518127
2019-03-20T13:40:50.527Z,9.417419
2019-03-20T13:44:18.365Z,9.367065
2019-03-20T13:47:46.209Z,9.356995
2019-03-20T13:51:14.054Z,9.336853
2019-03-20T13:54:42.031Z,9.367065
2019-03-20T13:58:09.867Z,9.397278
2019-03-20T14:01:37.702Z,9.437561
2019-03-20T14:05:05.555Z,9.447632
2019-03-20T14:08:33.400Z,9.508057
2019-03-20T14:12:01.270Z,9.538269
2019-03-20T14:15:29.308Z,9.568481
2019-03-20T14:18:57.149Z,9.538269
2019-03-20T14:22:24.987Z,9.598694
2019-03-20T14:25:54.692Z,9.628906
2019-03-20T14:29:22.871Z,9.659119
2019-03-20T14:32:50.724Z,9.649048
2019-03-20T14:36:21.220Z,9.689331
2019-03-20T14:39:49.035Z,9.689331
2019-03-20T14:43:16.920Z,9.719543
2019-03-20T14:46:44.696Z,9.719543
2019-03-20T14:50:12.535Z,9.719543
2019-03-20T14:53:41.364Z,9.749756
2019-03-20T14:57:09.537Z,9.719543
2019-03-20T15:00:38.185Z,9.749756
2019-03-20T15:04:06.021Z,9.749756
2019-03-20T15:07:33.846Z,9.80011
2019-03-20T15:11:01.726Z,9.850464
2019-03-20T15:14:29.559Z,9.941101
2019-03-20T15:17:57.601Z,9.981384
2019-03-20T15:21:25.434Z,9.991455
2019-03-20T15:24:53.289Z,9.961243
2019-03-20T15:28:21.397Z,9.93103
2019-03-20T15:31:49.586Z,9.840393
2019-03-20T15:35:17.463Z,9.80011
2019-03-20T15:38:47.244Z,9.719543
2019-03-20T15:42:22.644Z,9.689331
2019-03-20T15:45:50.486Z,9.649048
2019-03-20T15:49:19.305Z,9.649048
2019-03-20T15:52:47.125Z,9.618835
2019-03-20T15:56:14.985Z,9.618835
2019-03-20T15:59:43.731Z,9.598694
2019-03-20T16:03:11.558Z,9.568481
2019-03-20T16:06:39.414Z,9.538269
2019-03-20T16:10:08.266Z,9.477844
2019-03-20T16:13:36.102Z,9.437561
2019-03-20T16:17:03.926Z,9.397278
2019-03-20T16:20:31.761Z,9.356995
2019-03-20T16:23:59.593Z,9.336853
2019-03-20T16:27:27.464Z,9.356995
2019-03-20T16:30:55.353Z,9.356995
2019-03-20T16:34:23.206Z,9.397278
2019-03-20T16:37:51.037Z,9.367065
2019-03-20T16:41:18.877Z,9.367065
2019-03-20T16:44:46.711Z,9.397278
2019-03-20T16:48:14.578Z,9.356995
2019-03-20T16:51:42.412Z,9.326782
2019-03-20T16:55:10.240Z,9.326782
2019-03-20T16:58:38.086Z,9.29657
2019-03-20T17:02:05.907Z,9.316711
2019-03-20T17:05:33.749Z,9.266357
2019-03-20T17:09:01.588Z,9.256287
2019-03-20T17:12:29.409Z,9.236145
2019-03-20T17:15:57.243Z,9.185791
2019-03-20T17:19:25.079Z,9.185791
2019-03-20T17:22:52.917Z,9.185791
2019-03-20T17:26:20.834Z,9.145508
2019-03-20T17:29:48.687Z,9.115295
2019-03-20T17:33:17.229Z,9.064941
2019-03-20T17:36:45.051Z,9.034729
2019-03-20T17:40:12.913Z,8.994446
2019-03-20T17:43:40.803Z,8.964233
2019-03-20T17:47:09.380Z,8.954163
2019-03-20T17:50:37.217Z,8.934021
2019-03-20T17:54:05.052Z,8.954163
2019-03-20T17:57:32.885Z,8.994446
2019-03-20T18:01:00.728Z,8.994446
2019-03-20T18:04:28.569Z,8.994446
2019-03-20T18:07:56.454Z,8.994446
2019-03-20T18:11:24.276Z,8.964233
2019-03-20T18:14:52.118Z,8.934021
2019-03-20T18:18:19.972Z,8.92395
2019-03-20T18:21:47.787Z,8.883667
2019-03-20T18:25:15.639Z,8.883667
2019-03-20T18:28:43.486Z,8.863525
2019-03-20T18:32:11.315Z,8.883667
2019-03-20T18:35:39.164Z,8.883667
2019-03-20T18:39:07.013Z,8.863525
2019-03-20T18:42:34.873Z,8.853455
2019-03-20T18:46:02.726Z,8.833313
2019-03-20T18:49:30.573Z,8.813171
2019-03-20T18:52:58.406Z,8.803101
2019-03-20T18:56:27.227Z,8.803101
2019-03-20T18:59:55.178Z,8.803101
2019-03-20T19:03:23.994Z,8.813171
2019-03-20T19:06:51.846Z,8.803101
2019-03-20T19:10:19.735Z,8.782959
2019-03-20T19:13:47.587Z,8.803101
2019-03-20T19:17:15.434Z,8.782959
2019-03-20T19:20:44.264Z,8.782959
2019-03-20T19:24:12.088Z,8.803101
2019-03-20T19:27:40.923Z,8.813171
2019-03-20T19:31:08.795Z,8.833313
2019-03-20T19:34:36.672Z,8.853455
2019-03-20T19:38:04.517Z,8.853455
2019-03-20T19:41:32.410Z,8.863525
2019-03-20T19:45:00.375Z,8.863525
2019-03-20T19:48:29.523Z,8.883667
2019-03-20T19:51:57.037Z,8.853455
2019-03-20T19:55:25.934Z,8.803101
2019-03-20T19:58:53.856Z,8.752747
2019-03-20T20:02:22.682Z,8.712463
2019-03-20T20:05:53.000Z,8.722534
2019-03-20T20:09:21.965Z,8.722534
2019-03-20T20:12:50.119Z,8.702393
2019-03-20T20:16:18.762Z,8.652039
2019-03-20T20:19:48.695Z,8.621826
2019-03-20T20:23:17.462Z,8.571472
2019-03-20T20:26:45.952Z,8.500977
2019-03-20T20:30:15.760Z,8.440552
2019-03-20T20:33:44.417Z,8.390198
2019-03-20T20:37:12.314Z,8.309631
2019-03-20T20:40:40.986Z,8.208923
2019-03-20T20:44:08.864Z,8.16864
2019-03-20T20:47:36.752Z,8.138428
2019-03-20T20:51:04.615Z,8.128357
2019-03-20T20:54:32.498Z,8.118286
2019-03-20T20:58:01.311Z,8.047791
2019-03-20T21:01:30.233Z,8.007507
2019-03-20T21:04:57.624Z,7.957153
2019-03-20T21:08:25.518Z,7.91687
2019-03-20T21:11:54.328Z,7.866516
2019-03-20T21:15:23.203Z,7.866516
2019-03-20T21:18:51.080Z,7.836304
2019-03-20T21:22:20.494Z,7.775879
2019-03-20T21:25:49.096Z,7.796021
2019-03-20T21:29:17.004Z,7.826233
2019-03-20T21:32:45.895Z,7.866516
2019-03-20T21:36:13.721Z,7.957153
2019-03-20T21:39:41.547Z,8.03772
2019-03-20T21:43:09.387Z,7.987366
2019-03-20T21:46:37.342Z,7.977295
2019-03-20T21:50:05.232Z,8.017578
2019-03-20T21:53:33.130Z,8.017578
2019-03-20T21:57:00.973Z,8.017578
2019-03-20T22:00:28.803Z,8.047791
2019-03-20T22:03:56.655Z,8.047791
2019-03-20T22:07:24.477Z,8.098145
2019-03-20T22:10:52.309Z,8.118286
2019-03-20T22:14:20.188Z,8.128357
2019-03-20T22:17:50.744Z,8.158569
2019-03-20T22:21:17.838Z,8.188782
2019-03-20T22:24:45.675Z,8.229065
2019-03-20T22:28:13.506Z,8.239136
2019-03-20T22:31:41.342Z,8.229065
2019-03-20T22:35:09.180Z,8.259277
2019-03-20T22:38:36.996Z,8.259277
2019-03-20T22:42:04.835Z,8.229065
2019-03-20T22:45:32.669Z,8.239136
2019-03-20T22:49:00.503Z,8.239136
2019-03-20T22:52:29.344Z,8.229065
2019-03-20T22:55:57.197Z,8.229065
2019-03-20T22:59:25.015Z,8.188782
